Time;durP1;ratioP1;P1;durP2;ratioP2;P2;SDS_P1;SDS_P2;PMS_P1;PMS_P2;Temp;Humidity;BMP_temperature;BMP_pressure;BME280_temperature;BME280_humidity;BME280_pressure;Samples;Min_cycle;Max_cycle;Signal;HPM_P1;HPM_P2
2023/03/14 00:01:23;;;;;;;19.45;3.90;;;9.40;99.90;;;;;;5093560;28;20426;-77
2023/03/14 00:03:49;;;;;;;22.73;4.07;;;9.40;99.90;;;;;;5090664;28;20421;-76
2023/03/14 00:06:16;;;;;;;21.63;3.90;;;9.30;99.90;;;;;;5090673;28;20458;-77
2023/03/14 00:08:43;;;;;;;23.00;4.60;;;9.30;99.90;;;;;;5090279;28;20406;-77
2023/03/14 00:11:11;;;;;;;28.33;4.25;;;9.30;99.90;;;;;;5090051;28;20775;-76
2023/03/14 00:13:37;;;;;;;25.83;4.75;;;9.30;99.90;;;;;;5091577;28;20408;-76
2023/03/14 00:16:05;;;;;;;21.58;3.92;;;9.30;99.90;;;;;;5092566;28;20402;-76
2023/03/14 00:18:31;;;;;;;24.58;4.00;;;9.30;99.90;;;;;;5090265;28;20421;-76
2023/03/14 00:21:01;;;;;;;19.70;3.70;;;9.30;99.90;;;;;;5089744;28;20429;-76
2023/03/14 00:23:29;;;;;;;20.63;3.90;;;9.30;99.90;;;;;;5061966;28;20416;-76
2023/03/14 00:25:59;;;;;;;21.15;4.13;;;9.30;99.90;;;;;;5090689;28;21316;-76
2023/03/14 00:28:25;;;;;;;22.08;3.85;;;9.40;99.90;;;;;;5090281;28;20428;-77
2023/03/14 00:30:51;;;;;;;22.63;4.45;;;9.40;99.90;;;;;;5090263;28;20892;-77
2023/03/14 00:33:16;;;;;;;24.15;4.85;;;9.40;99.90;;;;;;5088587;28;20915;-76
2023/03/14 00:35:42;;;;;;;17.77;4.07;;;9.50;99.90;;;;;;5090460;28;20402;-77
2023/03/14 00:38:07;;;;;;;22.75;3.80;;;9.50;99.90;;;;;;5090194;28;20922;-77
2023/03/14 00:40:33;;;;;;;20.93;3.90;;;9.60;99.90;;;;;;5088492;28;20430;-77
2023/03/14 00:42:59;;;;;;;21.07;4.00;;;9.60;99.90;;;;;;5090236;28;20459;-77
2023/03/14 00:45:24;;;;;;;20.80;4.10;;;9.70;99.90;;;;;;5090367;28;20489;-77
2023/03/14 00:47:50;;;;;;;19.50;4.03;;;9.60;99.90;;;;;;5089108;28;20883;-77
2023/03/14 00:50:15;;;;;;;24.08;4.28;;;9.70;99.90;;;;;;5077508;28;20421;-77
2023/03/14 00:52:41;;;;;;;19.83;4.00;;;9.70;99.90;;;;;;5088283;28;20445;-77
2023/03/14 00:55:07;;;;;;;26.42;4.75;;;9.70;99.90;;;;;;5088528;28;20828;-77
2023/03/14 00:57:33;;;;;;;22.10;3.80;;;9.70;99.90;;;;;;5089480;28;20430;-77
2023/03/14 00:59:58;;;;;;;20.13;4.47;;;9.70;99.90;;;;;;5089769;28;20930;-77
2023/03/14 01:02:24;;;;;;;21.05;3.95;;;9.70;99.90;;;;;;5071503;28;20971;-77
2023/03/14 01:04:50;;;;;;;17.47;3.27;;;9.70;99.90;;;;;;5081498;28;20400;-77
2023/03/14 01:07:16;;;;;;;21.25;4.30;;;9.70;99.90;;;;;;5085721;28;20410;-77
2023/03/14 01:09:41;;;;;;;19.08;3.65;;;9.70;99.90;;;;;;5089619;28;20386;-77
2023/03/14 01:12:07;;;;;;;16.65;3.72;;;9.70;99.90;;;;;;5089209;28;20440;-77
2023/03/14 01:14:33;;;;;;;18.10;3.53;;;9.70;99.90;;;;;;5090207;28;20416;-77
2023/03/14 01:17:00;;;;;;;20.73;3.83;;;9.70;99.90;;;;;;5090250;28;20764;-77
2023/03/14 01:19:28;;;;;;;23.85;3.45;;;9.70;99.90;;;;;;5088122;28;20479;-76
2023/03/14 01:21:54;;;;;;;18.10;2.83;;;9.80;99.90;;;;;;5088535;28;20416;-77
2023/03/14 01:24:20;;;;;;;15.80;3.22;;;9.80;99.90;;;;;;5077942;28;20798;-77
2023/03/14 01:26:46;;;;;;;15.00;3.30;;;9.80;99.90;;;;;;5088370;28;20441;-77
2023/03/14 01:29:11;;;;;;;17.52;3.25;;;9.90;99.90;;;;;;5078704;28;20428;-77
2023/03/14 01:31:37;;;;;;;22.98;3.25;;;9.90;99.90;;;;;;5087519;28;20435;-76
2023/03/14 01:34:02;;;;;;;16.17;2.80;;;9.90;99.90;;;;;;5085962;28;20480;-77
2023/03/14 01:36:28;;;;;;;18.55;3.47;;;10.00;99.90;;;;;;5085314;28;20413;-77
2023/03/14 01:38:54;;;;;;;16.87;3.00;;;10.00;99.90;;;;;;5082073;28;20404;-77
2023/03/14 01:41:25;;;;;;;16.77;2.95;;;10.10;99.90;;;;;;5097218;28;20420;-77
2023/03/14 01:43:52;;;;;;;17.52;3.75;;;10.10;99.90;;;;;;5091790;28;20416;-77
2023/03/14 01:46:40;;;;;;;18.63;3.55;;;10.20;99.90;;;;;;5088704;28;20409;-77
2023/03/14 01:49:18;;;;;;;18.33;3.25;;;10.20;99.90;;;;;;5088889;28;20437;-77
2023/03/14 01:51:47;;;;;;;15.95;3.20;;;10.30;99.90;;;;;;5088732;28;20405;-77
2023/03/14 01:54:30;;;;;;;17.73;3.20;;;10.30;99.90;;;;;;5088981;28;20409;-77
2023/03/14 01:57:28;;;;;;;20.55;3.15;;;10.30;99.90;;;;;;5099333;28;20400;-77
2023/03/14 01:59:59;;;;;;;15.43;3.33;;;10.30;99.90;;;;;;5087963;28;20432;-77
2023/03/14 02:02:27;;;;;;;13.82;3.03;;;10.40;99.90;;;;;;5089651;28;20485;-77
2023/03/14 02:04:54;;;;;;;14.85;2.85;;;10.40;99.90;;;;;;5106722;28;20400;-77
2023/03/14 02:07:39;;;;;;;15.00;2.90;;;10.40;99.90;;;;;;5106287;28;20411;-77
2023/03/14 02:10:05;;;;;;;16.33;2.80;;;10.40;99.90;;;;;;5086270;28;20396;-77
2023/03/14 02:12:32;;;;;;;14.10;2.50;;;10.40;99.90;;;;;;5104313;28;20489;-77
2023/03/14 02:14:57;;;;;;;13.68;2.60;;;10.40;99.90;;;;;;5107176;28;20392;-77
2023/03/14 02:17:24;;;;;;;14.32;2.58;;;10.40;99.90;;;;;;5104417;28;20409;-77
2023/03/14 02:20:04;;;;;;;15.77;2.38;;;10.40;99.90;;;;;;5107023;28;20418;-76
2023/03/14 02:22:31;;;;;;;13.60;2.47;;;10.40;99.90;;;;;;5102207;28;20416;-76
2023/03/14 02:25:08;;;;;;;12.95;2.58;;;10.40;99.90;;;;;;5086698;28;20753;-77
2023/03/14 02:27:34;;;;;;;12.80;2.20;;;10.40;99.90;;;;;;5105625;28;20470;-77
2023/03/14 02:30:10;;;;;;;11.65;2.10;;;10.40;99.90;;;;;;5094531;28;20390;-77
2023/03/14 02:32:39;;;;;;;13.35;2.83;;;10.30;99.90;;;;;;5075380;28;20873;-76
2023/03/14 02:35:10;;;;;;;11.93;2.42;;;10.30;99.90;;;;;;5087001;28;20452;-77
2023/03/14 02:37:55;;;;;;;14.52;2.65;;;10.30;99.90;;;;;;5087505;28;20803;-77
2023/03/14 02:40:21;;;;;;;13.25;2.50;;;10.20;99.90;;;;;;5091831;28;20431;-77
2023/03/14 02:42:46;;;;;;;14.32;2.35;;;10.20;99.90;;;;;;5095002;28;20433;-76
2023/03/14 02:45:15;;;;;;;9.47;2.07;;;10.20;99.90;;;;;;5102137;28;20428;-76
2023/03/14 02:47:46;;;;;;;10.48;1.92;;;10.20;99.90;;;;;;5095155;28;20969;-77
2023/03/14 02:50:20;;;;;;;14.60;2.40;;;10.10;99.90;;;;;;5088480;28;20425;-77
2023/03/14 02:52:45;;;;;;;12.60;2.33;;;10.10;99.90;;;;;;5087005;28;20406;-76
2023/03/14 02:55:11;;;;;;;10.32;1.40;;;10.10;99.90;;;;;;5088451;28;20398;-76
2023/03/14 02:57:37;;;;;;;12.60;2.10;;;10.10;99.90;;;;;;5087282;28;20475;-76
2023/03/14 03:00:04;;;;;;;10.67;1.50;;;10.00;99.90;;;;;;5086442;28;20574;-77
2023/03/14 03:02:31;;;;;;;10.25;1.95;;;10.00;99.90;;;;;;5069743;28;20497;-77
2023/03/14 03:04:56;;;;;;;12.52;2.00;;;10.00;99.90;;;;;;5086187;28;20907;-76
2023/03/14 03:07:22;;;;;;;12.60;1.90;;;10.00;99.90;;;;;;5087940;28;20405;-77
2023/03/14 03:09:48;;;;;;;11.30;1.65;;;10.00;99.90;;;;;;5085437;28;20514;-77
2023/03/14 03:12:13;;;;;;;13.23;2.33;;;10.00;99.90;;;;;;5083941;28;20406;-77
2023/03/14 03:14:39;;;;;;;12.38;2.03;;;9.90;99.90;;;;;;5073059;28;20412;-76
2023/03/14 03:17:05;;;;;;;8.97;2.03;;;10.00;99.90;;;;;;5105562;28;20394;-77
2023/03/14 03:19:31;;;;;;;8.77;1.98;;;10.00;99.90;;;;;;5093195;28;20502;-76
2023/03/14 03:21:58;;;;;;;13.00;2.10;;;10.00;99.90;;;;;;5091619;28;20401;-77
2023/03/14 03:24:24;;;;;;;11.52;2.03;;;9.90;99.90;;;;;;5095497;28;20394;-77
2023/03/14 03:26:50;;;;;;;10.00;1.50;;;10.00;99.90;;;;;;5093100;28;20402;-77
2023/03/14 03:29:16;;;;;;;10.88;1.73;;;9.90;99.90;;;;;;5085363;28;20857;-77
2023/03/14 03:31:42;;;;;;;9.13;1.80;;;9.90;99.90;;;;;;5092569;28;20837;-77
2023/03/14 03:34:07;;;;;;;12.73;2.17;;;9.90;99.90;;;;;;5094775;28;20471;-77
2023/03/14 03:36:33;;;;;;;9.82;2.17;;;9.90;99.90;;;;;;5088858;28;20493;-77
2023/03/14 03:38:59;;;;;;;10.13;1.73;;;9.90;99.90;;;;;;5074070;28;20424;-76
2023/03/14 03:41:25;;;;;;;9.35;1.92;;;9.90;99.90;;;;;;5072202;28;20920;-77
2023/03/14 03:43:51;;;;;;;9.55;1.77;;;9.80;99.90;;;;;;5089045;28;20406;-76
2023/03/14 03:46:16;;;;;;;10.00;1.97;;;9.80;99.90;;;;;;5088591;28;20489;-77
2023/03/14 03:48:42;;;;;;;10.88;1.98;;;9.80;99.90;;;;;;5077402;28;20444;-77
2023/03/14 03:51:13;;;;;;;9.27;2.20;;;9.80;99.90;;;;;;5073465;28;20410;-77
2023/03/14 03:53:38;;;;;;;8.60;2.00;;;9.70;99.90;;;;;;5083299;28;20404;-77
2023/03/14 03:56:04;;;;;;;9.87;2.40;;;9.60;99.90;;;;;;5083509;28;20413;-77
2023/03/14 03:58:30;;;;;;;8.55;1.92;;;9.50;99.90;;;;;;5106369;28;20811;-77
2023/03/14 04:00:56;;;;;;;9.70;2.17;;;9.40;99.90;;;;;;5088936;28;20483;-77
2023/03/14 04:03:21;;;;;;;10.70;2.43;;;9.30;99.90;;;;;;5089326;28;20455;-77
2023/03/14 04:05:58;;;;;;;10.68;2.40;;;9.30;99.90;;;;;;5089215;28;20398;-77
2023/03/14 04:08:23;;;;;;;10.87;2.63;;;9.30;99.90;;;;;;5078379;28;20451;-77
2023/03/14 04:10:49;;;;;;;11.43;2.40;;;9.30;99.90;;;;;;5091632;28;20406;-77
2023/03/14 04:13:15;;;;;;;9.60;2.63;;;9.20;99.90;;;;;;5089391;28;20406;-77
2023/03/14 04:15:40;;;;;;;10.07;2.75;;;9.20;99.90;;;;;;5090007;28;20406;-77
2023/03/14 04:18:06;;;;;;;11.27;2.73;;;9.20;99.90;;;;;;5090374;28;20410;-79
2023/03/14 04:20:34;;;;;;;11.00;3.40;;;9.20;99.90;;;;;;5088500;28;20441;-76
2023/03/14 04:23:00;;;;;;;11.88;3.08;;;9.20;99.90;;;;;;5090398;28;20409;-77
2023/03/14 04:25:25;;;;;;;13.02;3.80;;;9.10;99.90;;;;;;5079703;28;20430;-77
2023/03/14 04:27:51;;;;;;;15.50;4.00;;;9.10;99.90;;;;;;5091211;28;20410;-77
2023/03/14 04:30:17;;;;;;;12.10;3.47;;;9.20;99.90;;;;;;5080778;28;20399;-76
2023/03/14 04:32:42;;;;;;;15.30;3.90;;;9.20;99.90;;;;;;5089472;28;21398;-77
2023/03/14 04:35:08;;;;;;;18.63;4.03;;;9.20;99.90;;;;;;5091817;28;20402;-76
2023/03/14 04:37:34;;;;;;;16.17;3.55;;;9.20;99.90;;;;;;5096465;28;20400;-76
2023/03/14 04:40:00;;;;;;;14.20;3.95;;;9.20;99.90;;;;;;5107154;28;20423;-76
2023/03/14 04:42:25;;;;;;;17.50;4.50;;;9.20;99.90;;;;;;5107793;28;20980;-76
2023/03/14 04:44:51;;;;;;;19.40;4.20;;;9.20;99.90;;;;;;5105791;28;20405;-78
2023/03/14 04:47:17;;;;;;;14.27;4.27;;;9.20;99.90;;;;;;5109104;28;20400;-78
2023/03/14 04:49:42;;;;;;;18.92;4.65;;;9.20;99.90;;;;;;5088652;28;20408;-76
2023/03/14 04:52:08;;;;;;;12.40;4.23;;;9.20;99.90;;;;;;5109272;27;20400;-76
2023/03/14 04:54:34;;;;;;;15.88;4.45;;;9.10;99.90;;;;;;5089227;28;20886;-76
2023/03/14 04:57:00;;;;;;;11.80;4.80;;;9.10;99.90;;;;;;5102392;28;20402;-77
2023/03/14 04:59:25;;;;;;;20.00;5.30;;;9.10;99.90;;;;;;5089348;28;20539;-78
2023/03/14 05:01:51;;;;;;;19.05;5.60;;;9.10;99.90;;;;;;5109221;28;20476;-77
2023/03/14 05:04:16;;;;;;;14.43;5.37;;;9.10;99.90;;;;;;5108373;28;20750;-77
2023/03/14 05:06:42;;;;;;;15.05;5.05;;;9.10;99.90;;;;;;5108901;28;20967;-77
2023/03/14 05:09:08;;;;;;;15.70;5.40;;;9.00;99.90;;;;;;5083246;28;20412;-77
2023/03/14 05:11:33;;;;;;;12.68;5.43;;;9.00;99.90;;;;;;5082590;28;20400;-77
2023/03/14 05:13:59;;;;;;;16.27;5.60;;;8.90;99.90;;;;;;5095660;28;20475;-77
2023/03/14 05:16:25;;;;;;;15.32;5.60;;;8.90;99.90;;;;;;5067992;28;20442;-76
2023/03/14 05:18:50;;;;;;;17.57;5.80;;;9.00;99.90;;;;;;5082218;28;20768;-77
2023/03/14 05:21:16;;;;;;;15.90;6.55;;;9.00;99.90;;;;;;5093620;28;20852;-76
2023/03/14 05:23:42;;;;;;;13.32;5.57;;;8.90;99.90;;;;;;5091493;28;20405;-78
2023/03/14 05:26:07;;;;;;;17.50;5.90;;;8.90;99.90;;;;;;5093116;28;20398;-77
2023/03/14 05:28:33;;;;;;;15.15;5.97;;;9.00;99.90;;;;;;5091598;28;20398;-76
2023/03/14 05:30:58;;;;;;;18.67;6.20;;;8.90;99.90;;;;;;5092787;28;20416;-77
2023/03/14 05:33:24;;;;;;;18.10;6.32;;;8.90;99.90;;;;;;5090559;28;20405;-76
2023/03/14 05:35:50;;;;;;;17.23;6.00;;;8.90;99.90;;;;;;5088628;28;20402;-76
2023/03/14 05:38:15;;;;;;;14.70;5.28;;;8.90;99.90;;;;;;5101115;28;20392;-76
2023/03/14 05:40:41;;;;;;;14.40;5.80;;;8.90;99.90;;;;;;5100416;28;20517;-77
2023/03/14 05:43:07;;;;;;;18.70;6.88;;;8.80;99.90;;;;;;5087553;28;20426;-77
2023/03/14 05:45:35;;;;;;;18.80;6.28;;;8.80;99.90;;;;;;5087792;28;20447;-77
2023/03/14 05:48:00;;;;;;;15.90;5.95;;;8.80;99.90;;;;;;5089338;28;20944;-77
2023/03/14 05:50:26;;;;;;;15.35;6.13;;;8.80;99.90;;;;;;5071023;28;20414;-77
2023/03/14 05:52:52;;;;;;;15.10;5.83;;;8.80;99.90;;;;;;5087562;28;20449;-77
2023/03/14 05:55:17;;;;;;;15.27;5.57;;;8.80;99.90;;;;;;5088565;28;20397;-76
2023/03/14 05:57:43;;;;;;;16.00;6.20;;;8.80;99.90;;;;;;5088691;28;20414;-76
2023/03/14 06:00:09;;;;;;;15.02;6.18;;;8.80;99.90;;;;;;5088091;28;21156;-76
2023/03/14 06:02:35;;;;;;;17.83;5.97;;;8.80;99.90;;;;;;5087559;28;20406;-76
2023/03/14 06:05:00;;;;;;;18.63;6.32;;;8.70;99.90;;;;;;5101316;28;20919;-76
2023/03/14 06:07:26;;;;;;;22.97;10.20;;;8.70;99.90;;;;;;5087806;28;20402;-76
2023/03/14 06:09:51;;;;;;;15.57;5.50;;;8.80;99.90;;;;;;5088630;28;20421;-76
2023/03/14 06:12:17;;;;;;;16.10;5.90;;;8.80;99.90;;;;;;5088713;28;20948;-76
2023/03/14 06:14:43;;;;;;;15.65;5.82;;;8.70;99.90;;;;;;5087341;28;20448;-76
2023/03/14 06:17:08;;;;;;;13.43;5.87;;;8.70;99.90;;;;;;5090105;28;20438;-76
2023/03/14 06:19:34;;;;;;;13.02;5.05;;;8.70;99.90;;;;;;5088272;28;20410;-77
2023/03/14 06:21:59;;;;;;;10.63;4.00;;;8.70;99.90;;;;;;5088506;28;20401;-76
2023/03/14 06:24:25;;;;;;;9.13;3.90;;;8.80;99.90;;;;;;5088985;28;20409;-76
2023/03/14 06:26:51;;;;;;;9.43;3.43;;;8.80;99.90;;;;;;5088021;28;20402;-76
2023/03/14 06:29:16;;;;;;;8.18;3.17;;;8.80;99.90;;;;;;5088916;28;20972;-78
2023/03/14 06:31:42;;;;;;;7.90;3.10;;;8.80;99.90;;;;;;5087299;28;20402;-78
2023/03/14 06:34:07;;;;;;;8.10;2.78;;;8.70;99.90;;;;;;5089555;28;20402;-78
2023/03/14 06:36:33;;;;;;;8.17;2.67;;;8.70;99.90;;;;;;5099702;28;20400;-78
2023/03/14 06:38:59;;;;;;;6.03;2.20;;;8.80;99.90;;;;;;5093841;28;20403;-78
2023/03/14 06:41:26;;;;;;;6.22;1.90;;;8.80;99.90;;;;;;5103442;28;20507;-77
2023/03/14 06:43:52;;;;;;;4.18;0.63;;;8.70;99.90;;;;;;5086072;28;20410;-77
2023/03/14 06:46:18;;;;;;;3.87;0.37;;;8.60;99.90;;;;;;5087205;28;20413;-77
2023/03/14 06:48:43;;;;;;;7.97;0.93;;;8.40;99.90;;;;;;5087526;28;21331;-77
2023/03/14 06:51:09;;;;;;;8.88;1.25;;;8.20;99.90;;;;;;5087868;28;20408;-77
2023/03/14 06:53:35;;;;;;;11.90;1.67;;;8.10;99.90;;;;;;5088233;28;20888;-75
2023/03/14 06:56:01;;;;;;;11.38;1.73;;;8.00;99.90;;;;;;5086262;28;20412;-75
2023/03/14 06:58:26;;;;;;;14.82;1.88;;;7.90;99.90;;;;;;5081439;28;20402;-75
2023/03/14 07:00:57;;;;;;;15.02;1.83;;;7.80;99.90;;;;;;5080284;28;20807;-75
2023/03/14 07:03:22;;;;;;;12.63;1.73;;;7.70;99.90;;;;;;5086949;28;20401;-75
2023/03/14 07:05:48;;;;;;;18.00;1.63;;;7.50;99.90;;;;;;5086912;28;21323;-74
2023/03/14 07:08:14;;;;;;;14.30;2.08;;;7.40;99.90;;;;;;5087107;28;20480;-75
2023/03/14 07:10:39;;;;;;;15.63;1.50;;;7.20;99.90;;;;;;5086127;28;20437;-75
2023/03/14 07:13:05;;;;;;;15.23;1.97;;;6.90;99.90;;;;;;5077053;28;20444;-76
2023/03/14 07:15:31;;;;;;;17.05;1.63;;;6.60;99.90;;;;;;5085061;28;20438;-75
2023/03/14 07:17:56;;;;;;;12.37;1.60;;;6.30;99.90;;;;;;5081794;28;20511;-75
2023/03/14 07:20:23;;;;;;;14.13;1.52;;;6.00;99.90;;;;;;5088002;28;20443;-75
2023/03/14 07:22:49;;;;;;;17.90;1.48;;;5.80;99.90;;;;;;5091091;28;20508;-76
2023/03/14 07:25:15;;;;;;;11.37;1.40;;;5.70;99.90;;;;;;5089628;28;20471;-75
2023/03/14 07:27:44;;;;;;;11.30;1.13;;;5.60;99.90;;;;;;5092860;28;20404;-75
2023/03/14 07:30:12;;;;;;;9.80;0.70;;;5.40;99.90;;;;;;5086240;28;20426;-75
2023/03/14 07:32:38;;;;;;;8.88;0.93;;;5.30;99.90;;;;;;5088527;28;20951;-76
2023/03/14 07:35:04;;;;;;;8.40;0.63;;;5.20;99.90;;;;;;5087335;28;20414;-75
2023/03/14 07:37:30;;;;;;;10.35;0.70;;;5.00;99.90;;;;;;5085726;28;20408;-76
2023/03/14 07:39:55;;;;;;;6.65;0.50;;;4.90;99.90;;;;;;5085570;28;20418;-75
2023/03/14 07:42:21;;;;;;;6.73;0.40;;;4.80;99.90;;;;;;5075158;28;20460;-75
2023/03/14 07:44:46;;;;;;;7.33;0.53;;;4.70;99.90;;;;;;5085413;28;20474;-76
2023/03/14 07:47:12;;;;;;;3.50;0.40;;;4.70;99.90;;;;;;5082589;28;20512;-76
2023/03/14 07:49:38;;;;;;;3.07;0.40;;;4.60;99.90;;;;;;5083498;28;20421;-76
2023/03/14 07:52:03;;;;;;;8.20;0.60;;;4.60;99.90;;;;;;5084234;28;20424;-76
2023/03/14 07:54:29;;;;;;;5.03;0.40;;;4.60;99.90;;;;;;5084958;28;20398;-76
2023/03/14 07:56:55;;;;;;;5.93;0.57;;;4.60;99.90;;;;;;5088122;28;20919;-76
2023/03/14 07:59:21;;;;;;;4.43;0.50;;;4.60;99.90;;;;;;5089098;28;20398;-76
2023/03/14 08:01:46;;;;;;;5.67;0.50;;;4.60;99.90;;;;;;5070473;28;20444;-76
2023/03/14 08:04:12;;;;;;;6.20;0.40;;;4.60;99.90;;;;;;5085856;28;20407;-76
2023/03/14 08:06:38;;;;;;;6.93;0.77;;;4.60;99.90;;;;;;5092828;28;20507;-76
2023/03/14 08:09:04;;;;;;;4.33;0.40;;;4.60;99.90;;;;;;5086152;28;20447;-76
2023/03/14 08:11:30;;;;;;;3.58;0.30;;;4.60;99.90;;;;;;5094460;28;20420;-76
2023/03/14 08:13:55;;;;;;;4.90;0.67;;;4.60;99.90;;;;;;5080250;28;20891;-76
2023/03/14 08:16:21;;;;;;;4.65;0.57;;;4.70;99.90;;;;;;5099923;28;20513;-76
2023/03/14 08:18:47;;;;;;;4.40;0.32;;;4.70;99.90;;;;;;5092832;28;20445;-76
2023/03/14 08:21:13;;;;;;;4.90;0.40;;;4.80;99.90;;;;;;5103013;28;21060;-76
2023/03/14 08:23:38;;;;;;;3.40;0.50;;;4.90;99.90;;;;;;5098652;28;20422;-76
2023/03/14 08:26:04;;;;;;;5.60;0.40;;;5.00;99.90;;;;;;5080634;28;20418;-76
2023/03/14 08:28:32;;;;;;;5.23;0.30;;;5.00;99.90;;;;;;5085568;28;20489;-76
2023/03/14 08:30:58;;;;;;;4.45;0.45;;;5.10;99.90;;;;;;5087317;28;20401;-76
2023/03/14 08:33:25;;;;;;;5.20;0.50;;;5.20;99.90;;;;;;5088286;28;20814;-76
2023/03/14 08:35:58;;;;;;;7.20;0.60;;;5.30;99.90;;;;;;5096369;28;20406;-76
2023/03/14 08:38:24;;;;;;;7.35;0.95;;;5.40;99.90;;;;;;5086109;28;20480;-76
2023/03/14 08:40:59;;;;;;;8.77;0.73;;;5.40;99.90;;;;;;5086078;28;21084;-76
2023/03/14 08:43:25;;;;;;;7.70;0.80;;;5.50;99.90;;;;;;5081957;28;20406;-76
2023/03/14 08:45:50;;;;;;;7.40;1.00;;;5.60;99.90;;;;;;5088117;28;20398;-76
2023/03/14 08:48:16;;;;;;;8.77;0.80;;;5.60;99.90;;;;;;5086822;28;20398;-75
2023/03/14 08:50:42;;;;;;;6.83;0.80;;;5.70;99.90;;;;;;5089159;28;20431;-76
2023/03/14 08:53:08;;;;;;;7.03;0.68;;;5.70;99.90;;;;;;5092367;28;20470;-76
2023/03/14 08:55:34;;;;;;;7.82;1.10;;;5.80;99.90;;;;;;5093874;28;20452;-76
2023/03/14 08:57:59;;;;;;;8.00;1.38;;;5.80;99.90;;;;;;5083615;28;20814;-76
2023/03/14 09:00:25;;;;;;;9.73;0.80;;;5.80;99.90;;;;;;5092964;28;20453;-76
2023/03/14 09:02:51;;;;;;;9.02;0.85;;;5.80;99.90;;;;;;5098362;28;20408;-76
2023/03/14 09:05:16;;;;;;;8.53;1.50;;;5.90;99.90;;;;;;5093216;28;20467;-75
2023/03/14 09:07:42;;;;;;;9.13;1.10;;;6.00;99.90;;;;;;5083088;28;20737;-76
2023/03/14 09:10:09;;;;;;;9.27;1.52;;;6.10;99.90;;;;;;5082659;28;20785;-76
2023/03/14 09:12:35;;;;;;;12.05;1.35;;;6.10;99.90;;;;;;5086166;28;20396;-76
2023/03/14 09:15:00;;;;;;;13.37;1.40;;;6.10;99.90;;;;;;5084400;28;20837;-76
2023/03/14 09:17:26;;;;;;;12.63;1.87;;;6.20;99.90;;;;;;5098049;28;20404;-77
2023/03/14 09:19:52;;;;;;;13.65;2.25;;;6.30;99.90;;;;;;5092275;28;20449;-75
2023/03/14 09:22:18;;;;;;;14.13;2.23;;;6.50;99.90;;;;;;5090147;28;20413;-75
2023/03/14 09:24:43;;;;;;;15.45;1.77;;;6.60;99.90;;;;;;5088918;28;20422;-76
2023/03/14 09:27:09;;;;;;;13.13;2.20;;;6.80;99.90;;;;;;5098719;28;20404;-75
2023/03/14 09:29:34;;;;;;;18.27;2.60;;;6.90;99.90;;;;;;5087933;28;20425;-76
2023/03/14 09:32:00;;;;;;;13.05;1.98;;;7.10;99.90;;;;;;5080080;28;20425;-76
2023/03/14 09:34:26;;;;;;;14.77;2.20;;;7.20;99.90;;;;;;5092894;28;20733;-76
2023/03/14 09:36:52;;;;;;;15.27;2.08;;;7.30;99.90;;;;;;5081130;28;20951;-78
2023/03/14 09:39:18;;;;;;;15.82;2.38;;;7.40;99.90;;;;;;5085935;28;20615;-75
2023/03/14 09:41:50;;;;;;;17.90;2.22;;;7.50;99.90;;;;;;5087403;28;20508;-76
2023/03/14 09:44:27;;;;;;;20.42;2.80;;;7.60;99.90;;;;;;5071052;28;20414;-76
2023/03/14 09:46:57;;;;;;;15.35;2.38;;;7.60;99.90;;;;;;5086738;28;20453;-75
2023/03/14 09:49:31;;;;;;;16.90;2.78;;;7.40;99.90;;;;;;5088738;28;20402;-76
2023/03/14 09:52:00;;;;;;;14.10;1.95;;;7.20;99.90;;;;;;5083124;28;20412;-76
2023/03/14 09:54:54;;;;;;;19.80;2.38;;;6.90;99.90;;;;;;5087035;28;20505;-76
2023/03/14 09:57:23;;;;;;;16.98;2.45;;;6.80;99.90;;;;;;5061548;28;20406;-77
2023/03/14 09:59:51;;;;;;;16.63;2.25;;;6.80;99.90;;;;;;5087029;28;20433;-77
2023/03/14 10:02:19;;;;;;;15.05;2.17;;;6.80;99.90;;;;;;5087554;28;20426;-77
2023/03/14 10:04:46;;;;;;;16.25;2.15;;;6.80;99.90;;;;;;5086469;28;20471;-76
2023/03/14 10:07:34;;;;;;;18.83;2.83;;;6.80;99.90;;;;;;5084149;28;20422;-77
2023/03/14 10:10:00;;;;;;;19.65;2.90;;;6.80;99.90;;;;;;5085724;28;20791;-76
2023/03/14 10:12:34;;;;;;;16.27;2.70;;;6.80;99.90;;;;;;5085158;28;20418;-76
2023/03/14 10:15:05;;;;;;;13.10;2.33;;;6.90;99.90;;;;;;5088399;28;20398;-76
2023/03/14 10:17:42;;;;;;;20.08;2.70;;;6.90;99.90;;;;;;5086843;28;20410;-76
2023/03/14 10:20:27;;;;;;;15.75;2.42;;;6.90;99.90;;;;;;5077819;28;20418;-76
2023/03/14 10:22:53;;;;;;;20.27;3.13;;;7.00;99.90;;;;;;5086953;28;21055;-76
2023/03/14 10:25:31;;;;;;;18.65;2.60;;;7.20;99.90;;;;;;5087144;28;20437;-76
2023/03/14 10:27:57;;;;;;;17.38;2.38;;;7.30;99.90;;;;;;5087316;28;20402;-75
2023/03/14 10:30:43;;;;;;;14.88;2.20;;;7.60;99.90;;;;;;5087772;28;20459;-76
2023/03/14 10:33:11;;;;;;;16.50;2.20;;;7.90;99.90;;;;;;5087389;28;20422;-76
2023/03/14 10:35:37;;;;;;;13.32;2.10;;;8.40;99.90;;;;;;5086283;28;20422;-75
2023/03/14 10:38:04;;;;;;;12.32;2.10;;;8.70;99.90;;;;;;5087686;28;20440;-75
2023/03/14 10:40:40;;;;;;;14.70;2.42;;;9.00;99.90;;;;;;5087857;28;20424;-75
2023/03/14 10:43:15;;;;;;;14.80;1.98;;;9.20;99.90;;;;;;5086882;28;20398;-76
2023/03/14 10:45:43;;;;;;;16.75;2.70;;;9.30;99.90;;;;;;5081747;28;20410;-77
2023/03/14 10:48:23;;;;;;;12.50;2.03;;;9.60;99.90;;;;;;5085440;28;20764;-75
2023/03/14 10:50:57;;;;;;;9.93;1.80;;;9.80;99.90;;;;;;5091522;28;20446;-76
2023/03/14 10:53:24;;;;;;;13.32;1.60;;;10.10;99.90;;;;;;5103258;28;20458;-75
2023/03/14 10:55:50;;;;;;;10.68;1.40;;;10.00;99.90;;;;;;5101773;28;20925;-75
2023/03/14 10:58:24;;;;;;;11.23;1.67;;;10.00;99.90;;;;;;5087751;28;20423;-76
2023/03/14 11:01:11;;;;;;;11.40;2.03;;;10.50;99.90;;;;;;5086606;28;20928;-76
2023/03/14 11:03:39;;;;;;;10.93;1.83;;;10.90;99.90;;;;;;5076422;28;20410;-76
2023/03/14 11:06:21;;;;;;;16.73;3.78;;;10.90;99.90;;;;;;5088234;28;20417;-76
2023/03/14 11:08:54;;;;;;;9.48;1.92;;;10.50;99.90;;;;;;5106819;28;20412;-75
2023/03/14 11:11:25;;;;;;;8.95;1.52;;;9.80;99.90;;;;;;5089541;28;20420;-76
2023/03/14 11:13:57;;;;;;;8.68;1.42;;;9.50;99.90;;;;;;5087456;28;20946;-76
2023/03/14 11:16:41;;;;;;;7.15;1.42;;;9.80;99.90;;;;;;5083856;28;20931;-76
2023/03/14 11:19:31;;;;;;;8.63;1.50;;;10.60;99.90;;;;;;5068499;28;20438;-76
2023/03/14 11:22:19;;;;;;;8.60;1.30;;;11.40;97.20;;;;;;5083649;28;20430;-76
2023/03/14 11:24:50;;;;;;;7.57;1.20;;;11.80;98.70;;;;;;5079234;28;20471;-75
2023/03/14 11:27:40;;;;;;;5.20;0.82;;;11.90;98.50;;;;;;5088538;28;20415;-76
2023/03/14 11:30:35;;;;;;;7.87;1.17;;;11.90;94.40;;;;;;5087917;28;20417;-76
2023/03/14 11:33:15;;;;;;;7.47;1.05;;;11.80;94.50;;;;;;5102370;28;20799;-76
2023/03/14 11:35:55;;;;;;;9.07;2.13;;;11.00;96.70;;;;;;5084696;28;20427;-76
2023/03/14 11:38:49;;;;;;;8.15;1.67;;;10.20;97.00;;;;;;5088745;28;20457;-76
2023/03/14 11:41:22;;;;;;;8.73;1.48;;;9.60;99.90;;;;;;5093338;28;20870;-76
2023/03/14 11:43:53;;;;;;;7.72;1.00;;;9.10;99.90;;;;;;5089020;28;20427;-76
2023/03/14 11:46:31;;;;;;;5.67;1.00;;;8.80;99.90;;;;;;5092402;28;20496;-77
2023/03/14 11:49:00;;;;;;;7.45;1.20;;;8.50;99.60;;;;;;5086809;28;20408;-77
2023/03/14 11:51:36;;;;;;;6.80;1.00;;;8.80;99.90;;;;;;5103794;28;20461;-77
2023/03/14 11:54:16;;;;;;;5.38;0.70;;;10.10;99.30;;;;;;5095923;28;20420;-76
2023/03/14 11:56:57;;;;;;;7.95;1.13;;;11.10;94.90;;;;;;5095443;28;20396;-77
2023/03/14 11:59:46;;;;;;;9.05;1.20;;;12.10;95.20;;;;;;5096639;28;20774;-76
2023/03/14 12:02:23;;;;;;;6.47;0.90;;;13.00;91.60;;;;;;5089943;28;20440;-77
2023/03/14 12:05:14;;;;;;;4.43;0.68;;;13.70;85.10;;;;;;5102636;28;20428;-76
2023/03/14 12:08:09;;;;;;;7.60;0.77;;;13.80;88.10;;;;;;5089231;28;20473;-77
2023/03/14 12:10:53;;;;;;;6.25;1.00;;;14.40;91.20;;;;;;5082406;28;20471;-77
2023/03/14 12:13:19;;;;;;;7.60;1.20;;;14.20;82.90;;;;;;5080941;28;20445;-78
2023/03/14 12:15:58;;;;;;;8.27;1.20;;;13.40;78.80;;;;;;5090595;28;20798;-77
2023/03/14 12:18:34;;;;;;;6.97;1.00;;;12.70;84.10;;;;;;5088705;28;20414;-77
2023/03/14 12:21:06;;;;;;;5.85;0.90;;;12.90;86.90;;;;;;5090182;28;21362;-77
2023/03/14 12:23:42;;;;;;;9.10;1.27;;;12.80;87.10;;;;;;5081648;28;20416;-76
2023/03/14 12:26:11;;;;;;;6.00;1.10;;;12.00;86.70;;;;;;5087264;28;20457;-77
2023/03/14 12:28:38;;;;;;;8.75;1.65;;;11.20;87.60;;;;;;5087184;28;20401;-77
2023/03/14 12:31:31;;;;;;;9.43;1.42;;;10.60;91.20;;;;;;5086821;28;20454;-78
2023/03/14 12:34:09;;;;;;;9.02;1.58;;;10.20;92.20;;;;;;5084189;28;20831;-76
2023/03/14 12:37:04;;;;;;;8.60;1.10;;;10.00;96.00;;;;;;5086379;28;20409;-77
2023/03/14 12:39:50;;;;;;;13.63;2.10;;;9.80;96.20;;;;;;5085980;28;20421;-78
2023/03/14 12:42:42;;;;;;;10.95;1.55;;;9.50;95.80;;;;;;5086089;28;20420;-78
2023/03/14 12:45:22;;;;;;;9.38;1.60;;;9.10;96.30;;;;;;5096547;28;20429;-77
2023/03/14 12:48:00;;;;;;;10.75;2.78;;;8.90;97.60;;;;;;5066544;28;20411;-77
2023/03/14 12:50:34;;;;;;;9.80;2.33;;;9.20;97.80;;;;;;5087098;28;20406;-77
2023/03/14 12:53:38;;;;;;;6.57;1.38;;;10.10;96.70;;;;;;5090964;28;20392;-77
2023/03/14 12:56:26;;;;;;;6.05;0.93;;;10.80;93.40;;;;;;5024319;28;20576;-77
2023/03/14 12:59:14;;;;;;;5.13;0.90;;;10.80;79.60;;;;;;5090380;28;20415;-77